sensor_id;sensor_type;location;lat;lon;timestamp;pressure;altitude;pressure_sealevel;temperature;humidity
65754;BME280;52488;47.502;18.940;2023-04-09T00:01:07;98669.91;;;2.27;100.00
65754;BME280;52488;47.502;18.940;2023-04-09T00:02:11;98660.31;;;2.26;100.00
65754;BME280;52488;47.502;18.940;2023-04-09T00:03:14;98658.59;;;2.29;100.00
65754;BME280;52488;47.502;18.940;2023-04-09T00:04:17;98664.28;;;2.25;100.00
65754;BME280;52488;47.502;18.940;2023-04-09T00:05:20;98662.81;;;2.24;100.00
65754;BME280;52488;47.502;18.940;2023-04-09T00:06:23;98666.25;;;2.25;100.00
65754;BME280;52488;47.502;18.940;2023-04-09T00:07:26;98666.78;;;2.23;100.00
65754;BME280;52488;47.502;18.940;2023-04-09T00:08:30;98671.47;;;2.23;100.00
65754;BME280;52488;47.502;18.940;2023-04-09T00:09:33;98671.75;;;2.19;100.00
65754;BME280;52488;47.502;18.940;2023-04-09T00:10:36;98662.38;;;2.20;100.00
65754;BME280;52488;47.502;18.940;2023-04-09T00:11:39;98676.16;;;2.22;100.00
65754;BME280;52488;47.502;18.940;2023-04-09T00:12:42;98672.50;;;2.20;100.00
65754;BME280;52488;47.502;18.940;2023-04-09T00:13:45;98671.03;;;2.19;100.00
65754;BME280;52488;47.502;18.940;2023-04-09T00:14:48;98670.81;;;2.17;100.00
65754;BME280;52488;47.502;18.940;2023-04-09T00:15:51;98668.38;;;2.13;100.00
65754;BME280;52488;47.502;18.940;2023-04-09T00:16:54;98668.16;;;2.11;100.00
65754;BME280;52488;47.502;18.940;2023-04-09T00:17:57;98666.19;;;2.11;100.00
65754;BME280;52488;47.502;18.940;2023-04-09T00:19:01;98668.91;;;2.11;100.00
65754;BME280;52488;47.502;18.940;2023-04-09T00:20:05;98668.66;;;2.09;100.00
65754;BME280;52488;47.502;18.940;2023-04-09T00:21:09;98665.22;;;2.09;100.00
65754;BME280;52488;47.502;18.940;2023-04-09T00:22:12;98667.19;;;2.08;100.00
65754;BME280;52488;47.502;18.940;2023-04-09T00:23:16;98665.00;;;2.07;100.00
65754;BME280;52488;47.502;18.940;2023-04-09T00:24:19;98666.47;;;2.08;100.00
65754;BME280;52488;47.502;18.940;2023-04-09T00:25:22;98665.50;;;2.05;100.00
65754;BME280;52488;47.502;18.940;2023-04-09T00:26:25;98666.00;;;2.04;100.00
65754;BME280;52488;47.502;18.940;2023-04-09T00:27:29;98667.47;;;2.05;100.00
65754;BME280;52488;47.502;18.940;2023-04-09T00:28:33;98665.28;;;2.03;100.00
65754;BME280;52488;47.502;18.940;2023-04-09T00:29:36;98665.28;;;2.03;100.00
65754;BME280;52488;47.502;18.940;2023-04-09T00:30:39;98670.19;;;2.05;100.00
65754;BME280;52488;47.502;18.940;2023-04-09T00:31:42;98667.47;;;2.05;100.00
65754;BME280;52488;47.502;18.940;2023-04-09T00:32:45;98663.31;;;2.04;100.00
65754;BME280;52488;47.502;18.940;2023-04-09T00:33:48;98661.84;;;2.03;100.00
65754;BME280;52488;47.502;18.940;2023-04-09T00:34:52;98663.31;;;2.04;100.00
65754;BME280;52488;47.502;18.940;2023-04-09T00:35:55;98666.75;;;2.04;100.00
65754;BME280;52488;47.502;18.940;2023-04-09T00:36:58;98668.50;;;2.02;100.00
65754;BME280;52488;47.502;18.940;2023-04-09T00:38:01;98667.03;;;2.01;100.00
65754;BME280;52488;47.502;18.940;2023-04-09T00:39:04;98664.09;;;1.99;100.00
65754;BME280;52488;47.502;18.940;2023-04-09T00:40:07;98662.41;;;1.96;100.00
65754;BME280;52488;47.502;18.940;2023-04-09T00:41:11;98658.97;;;1.95;100.00
65754;BME280;52488;47.502;18.940;2023-04-09T00:42:14;98660.19;;;1.94;100.00
65754;BME280;52488;47.502;18.940;2023-04-09T00:43:18;98660.19;;;1.94;100.00
65754;BME280;52488;47.502;18.940;2023-04-09T00:44:20;98663.94;;;1.91;100.00
65754;BME280;52488;47.502;18.940;2023-04-09T00:45:23;98665.19;;;1.90;100.00
65754;BME280;52488;47.502;18.940;2023-04-09T00:46:26;98664.22;;;1.88;100.00
65754;BME280;52488;47.502;18.940;2023-04-09T00:47:30;98658.81;;;1.88;100.00
65754;BME280;52488;47.502;18.940;2023-04-09T00:48:33;98668.91;;;1.87;100.00
65754;BME280;52488;47.502;18.940;2023-04-09T00:49:36;98659.31;;;1.86;100.00
65754;BME280;52488;47.502;18.940;2023-04-09T00:50:41;98668.69;;;1.85;100.00
65754;BME280;52488;47.502;18.940;2023-04-09T00:51:44;98662.31;;;1.82;100.00
65754;BME280;52488;47.502;18.940;2023-04-09T00:52:48;98661.56;;;1.82;100.00
65754;BME280;52488;47.502;18.940;2023-04-09T00:53:52;98665.53;;;1.81;100.00
65754;BME280;52488;47.502;18.940;2023-04-09T00:54:55;98661.56;;;1.82;100.00
65754;BME280;52488;47.502;18.940;2023-04-09T00:55:58;98664.78;;;1.80;100.00
65754;BME280;52488;47.502;18.940;2023-04-09T00:57:02;98663.03;;;1.83;100.00
65754;BME280;52488;47.502;18.940;2023-04-09T00:58:05;98663.78;;;1.83;100.00
65754;BME280;52488;47.502;18.940;2023-04-09T00:59:08;98653.16;;;1.85;100.00
65754;BME280;52488;47.502;18.940;2023-04-09T01:00:12;98659.53;;;1.88;100.00
65754;BME280;52488;47.502;18.940;2023-04-09T01:01:15;98658.81;;;1.88;100.00
65754;BME280;52488;47.502;18.940;2023-04-09T01:02:18;98655.88;;;1.85;100.00
65754;BME280;52488;47.502;18.940;2023-04-09T01:03:21;98662.03;;;1.86;100.00
65754;BME280;52488;47.502;18.940;2023-04-09T01:04:25;98664.00;;;1.85;100.00
65754;BME280;52488;47.502;18.940;2023-04-09T01:06:04;98659.31;;;1.86;100.00
65754;BME280;52488;47.502;18.940;2023-04-09T01:07:11;98660.25;;;1.89;100.00
65754;BME280;52488;47.502;18.940;2023-04-09T01:09:49;98660.25;;;1.89;100.00
65754;BME280;52488;47.502;18.940;2023-04-09T01:12:14;98668.69;;;1.85;100.00
65754;BME280;52488;47.502;18.940;2023-04-09T01:13:29;98664.00;;;1.85;100.00
65754;BME280;52488;47.502;18.940;2023-04-09T01:15:59;98653.69;;;1.84;100.00
65754;BME280;52488;47.502;18.940;2023-04-09T01:17:05;98652.94;;;1.83;100.00
65754;BME280;52488;47.502;18.940;2023-04-09T01:19:20;98657.34;;;1.87;100.00
65754;BME280;52488;47.502;18.940;2023-04-09T01:20:11;98658.59;;;1.85;100.00
65754;BME280;52488;47.502;18.940;2023-04-09T01:21:19;98657.13;;;1.84;100.00
65754;BME280;52488;47.502;18.940;2023-04-09T01:28:18;98653.31;;;1.93;100.00
65754;BME280;52488;47.502;18.940;2023-04-09T01:29:22;98652.06;;;1.94;100.00
65754;BME280;52488;47.502;18.940;2023-04-09T01:30:28;98654.78;;;1.94;100.00
65754;BME280;52488;47.502;18.940;2023-04-09T01:31:35;98655.03;;;1.96;100.00
65754;BME280;52488;47.502;18.940;2023-04-09T01:32:39;98654.50;;;1.98;100.00
65754;BME280;52488;47.502;18.940;2023-04-09T01:33:44;98658.69;;;1.99;100.00
65754;BME280;52488;47.502;18.940;2023-04-09T01:34:48;98665.56;;;2.00;100.00
65754;BME280;52488;47.502;18.940;2023-04-09T01:35:52;98658.91;;;2.01;100.00
65754;BME280;52488;47.502;18.940;2023-04-09T01:36:57;98663.81;;;2.02;100.00
65754;BME280;52488;47.502;18.940;2023-04-09T01:38:02;98660.06;;;2.05;100.00
65754;BME280;52488;47.502;18.940;2023-04-09T01:39:06;98661.03;;;2.08;100.00
65754;BME280;52488;47.502;18.940;2023-04-09T01:40:09;98672.09;;;2.10;100.00
65754;BME280;52488;47.502;18.940;2023-04-09T01:41:18;98660.25;;;2.13;100.00
65754;BME280;52488;47.502;18.940;2023-04-09T01:42:23;98662.22;;;2.12;100.00
65754;BME280;52488;47.502;18.940;2023-04-09T01:43:27;98661.44;;;2.18;100.00
65754;BME280;52488;47.502;18.940;2023-04-09T01:44:32;98665.09;;;2.20;100.00
65754;BME280;52488;47.502;18.940;2023-04-09T01:45:35;98665.31;;;2.22;100.00
65754;BME280;52488;47.502;18.940;2023-04-09T01:46:39;98666.25;;;2.25;100.00
65754;BME280;52488;47.502;18.940;2023-04-09T01:47:43;98662.31;;;2.26;100.00
65754;BME280;52488;47.502;18.940;2023-04-09T01:48:47;98662.53;;;2.28;100.00
65754;BME280;52488;47.502;18.940;2023-04-09T01:49:53;98658.06;;;2.30;100.00
65754;BME280;52488;47.502;18.940;2023-04-09T01:50:59;98663.28;;;2.28;100.00
65754;BME280;52488;47.502;18.940;2023-04-09T01:52:03;98662.22;;;2.31;100.00
65754;BME280;52488;47.502;18.940;2023-04-09T01:53:06;98658.59;;;2.29;100.00
65754;BME280;52488;47.502;18.940;2023-04-09T01:54:09;98666.47;;;2.27;100.00
65754;BME280;52488;47.502;18.940;2023-04-09T01:55:12;98657.63;;;2.26;100.00
65754;BME280;52488;47.502;18.940;2023-04-09T01:56:15;98657.13;;;2.28;100.00
65754;BME280;52488;47.502;18.940;2023-04-09T01:57:18;98657.13;;;2.28;100.00
65754;BME280;52488;47.502;18.940;2023-04-09T01:58:22;98665.53;;;2.24;100.00
65754;BME280;52488;47.502;18.940;2023-04-09T01:59:26;98661.38;;;2.23;100.00
65754;BME280;52488;47.502;18.940;2023-04-09T02:00:39;98664.56;;;2.22;100.00
65754;BME280;52488;47.502;18.940;2023-04-09T02:01:53;98661.63;;;2.20;100.00
65754;BME280;52488;47.502;18.940;2023-04-09T02:03:16;98664.12;;;2.18;100.00
65754;BME280;52488;47.502;18.940;2023-04-09T02:04:33;98660.69;;;2.17;100.00
65754;BME280;52488;47.502;18.940;2023-04-09T02:05:43;98661.91;;;2.16;100.00
65754;BME280;52488;47.502;18.940;2023-04-09T02:07:04;98659.22;;;2.16;100.00
65754;BME280;52488;47.502;18.940;2023-04-09T02:08:10;98660.47;;;2.15;100.00
65754;BME280;52488;47.502;18.940;2023-04-09T02:09:16;98663.97;;;2.10;100.00
65754;BME280;52488;47.502;18.940;2023-04-09T02:10:26;98652.19;;;2.07;100.00
65754;BME280;52488;47.502;18.940;2023-04-09T02:11:32;98657.16;;;2.03;100.00
65754;BME280;52488;47.502;18.940;2023-04-09T02:12:36;98656.22;;;2.01;100.00
65754;BME280;52488;47.502;18.940;2023-04-09T02:13:41;98656.47;;;1.97;100.00
65754;BME280;52488;47.502;18.940;2023-04-09T02:14:47;98659.97;;;1.92;100.00
65754;BME280;52488;47.502;18.940;2023-04-09T02:15:53;98652.37;;;1.91;100.00
65754;BME280;52488;47.502;18.940;2023-04-09T02:16:59;98658.53;;;1.91;100.00
65754;BME280;52488;47.502;18.940;2023-04-09T02:18:03;98650.41;;;1.91;100.00
65754;BME280;52488;47.502;18.940;2023-04-09T02:19:06;98655.59;;;1.89;100.00
65754;BME280;52488;47.502;18.940;2023-04-09T02:20:09;98659.25;;;1.92;100.00
65754;BME280;52488;47.502;18.940;2023-04-09T02:21:13;98657.28;;;1.92;100.00
65754;BME280;52488;47.502;18.940;2023-04-09T02:22:17;98657.50;;;1.94;100.00
65754;BME280;52488;47.502;18.940;2023-04-09T02:23:20;98647.91;;;1.93;100.00
65754;BME280;52488;47.502;18.940;2023-04-09T02:24:23;98653.84;;;1.92;100.00
65754;BME280;52488;47.502;18.940;2023-04-09T02:25:26;98646.72;;;1.89;100.00
65754;BME280;52488;47.502;18.940;2023-04-09T02:26:30;98647.97;;;1.88;100.00
65754;BME280;52488;47.502;18.940;2023-04-09T02:27:33;98646.22;;;1.90;100.00
65754;BME280;52488;47.502;18.940;2023-04-09T02:28:36;98650.59;;;1.93;100.00
65754;BME280;52488;47.502;18.940;2023-04-09T02:29:39;98649.59;;;1.96;100.00
65754;BME280;52488;47.502;18.940;2023-04-09T02:30:42;98645.84;;;1.99;100.00
65754;BME280;52488;47.502;18.940;2023-04-09T02:31:46;98649.53;;;2.02;100.00
65754;BME280;52488;47.502;18.940;2023-04-09T02:32:49;98645.44;;;1.95;100.00
65754;BME280;52488;47.502;18.940;2023-04-09T02:33:52;98644.47;;;1.93;100.00
65754;BME280;52488;47.502;18.940;2023-04-09T02:34:56;98640.81;;;1.90;100.00
65754;BME280;52488;47.502;18.940;2023-04-09T02:35:58;98651.66;;;1.90;100.00
65754;BME280;52488;47.502;18.940;2023-04-09T02:37:02;98635.16;;;1.88;100.00
65754;BME280;52488;47.502;18.940;2023-04-09T02:38:05;98645.97;;;1.88;100.00
65754;BME280;52488;47.502;18.940;2023-04-09T02:39:10;98644.00;;;1.89;100.00
65754;BME280;52488;47.502;18.940;2023-04-09T02:40:13;98650.66;;;1.88;100.00
65754;BME280;52488;47.502;18.940;2023-04-09T02:41:16;98642.53;;;1.88;100.00
65754;BME280;52488;47.502;18.940;2023-04-09T02:42:19;98648.69;;;1.88;100.00
65754;BME280;52488;47.502;18.940;2023-04-09T02:43:22;98649.41;;;1.89;100.00
65754;BME280;52488;47.502;18.940;2023-04-09T02:44:25;98640.56;;;1.88;100.00
65754;BME280;52488;47.502;18.940;2023-04-09T02:45:28;98645.25;;;1.88;100.00
65754;BME280;52488;47.502;18.940;2023-04-09T02:46:31;98641.81;;;1.87;100.00
65754;BME280;52488;47.502;18.940;2023-04-09T02:47:34;98649.41;;;1.89;100.00
65754;BME280;52488;47.502;18.940;2023-04-09T02:48:39;98644.00;;;1.89;100.00
65754;BME280;52488;47.502;18.940;2023-04-09T02:49:42;98651.66;;;1.90;100.00
65754;BME280;52488;47.502;18.940;2023-04-09T02:50:45;98646.44;;;1.92;100.00
65754;BME280;52488;47.502;18.940;2023-04-09T02:51:48;98638.31;;;1.92;100.00
65754;BME280;52488;47.502;18.940;2023-04-09T02:52:51;98648.41;;;1.92;100.00
65754;BME280;52488;47.502;18.940;2023-04-09T02:53:55;98647.16;;;1.93;100.00
65754;BME280;52488;47.502;18.940;2023-04-09T02:54:58;98649.88;;;1.93;100.00
65754;BME280;52488;47.502;18.940;2023-04-09T02:56:00;98644.69;;;1.95;100.00
65754;BME280;52488;47.502;18.940;2023-04-09T02:57:03;98649.81;;;1.98;100.00
65754;BME280;52488;47.502;18.940;2023-04-09T02:58:07;98644.91;;;1.97;100.00
65754;BME280;52488;47.502;18.940;2023-04-09T02:59:10;98641.22;;;1.94;100.00
65754;BME280;52488;47.502;18.940;2023-04-09T03:00:13;98648.62;;;1.94;100.00
65754;BME280;52488;47.502;18.940;2023-04-09T03:01:17;98647.41;;;1.95;100.00
65754;BME280;52488;47.502;18.940;2023-04-09T03:02:20;98646.66;;;1.94;100.00
65754;BME280;52488;47.502;18.940;2023-04-09T03:03:23;98644.19;;;1.96;100.00
65754;BME280;52488;47.502;18.940;2023-04-09T03:04:27;98639.72;;;1.99;100.00
65754;BME280;52488;47.502;18.940;2023-04-09T03:05:29;98651.00;;;2.03;100.00
65754;BME280;52488;47.502;18.940;2023-04-09T03:06:32;98647.34;;;2.00;100.00
65754;BME280;52488;47.502;18.940;2023-04-09T03:07:36;98646.31;;;2.03;100.00
65754;BME280;52488;47.502;18.940;2023-04-09T03:08:39;98649.75;;;2.04;100.00
65754;BME280;52488;47.502;18.940;2023-04-09T03:09:42;98647.03;;;2.04;100.00
65754;BME280;52488;47.502;18.940;2023-04-09T03:10:45;98644.13;;;2.02;100.00
65754;BME280;52488;47.502;18.940;2023-04-09T03:11:48;98641.63;;;2.04;100.00
65754;BME280;52488;47.502;18.940;2023-04-09T03:12:51;98645.06;;;2.04;100.00
65754;BME280;52488;47.502;18.940;2023-04-09T03:13:54;98644.13;;;2.02;100.00
65754;BME280;52488;47.502;18.940;2023-04-09T03:14:57;98652.47;;;2.04;100.00
65754;BME280;52488;47.502;18.940;2023-04-09T03:16:00;98644.63;;;2.00;100.00
65754;BME280;52488;47.502;18.940;2023-04-09T03:17:03;98649.28;;;2.00;100.00
65754;BME280;52488;47.502;18.940;2023-04-09T03:18:06;98648.56;;;1.99;100.00
65754;BME280;52488;47.502;18.940;2023-04-09T03:19:09;98645.66;;;1.97;100.00
65754;BME280;52488;47.502;18.940;2023-04-09T03:20:12;98647.84;;;1.99;100.00
65754;BME280;52488;47.502;18.940;2023-04-09T03:21:15;98647.03;;;2.04;100.00
65754;BME280;52488;47.502;18.940;2023-04-09T03:22:18;98649.75;;;2.04;100.00
65754;BME280;52488;47.502;18.940;2023-04-09T03:23:21;98648.81;;;2.01;100.00
65754;BME280;52488;47.502;18.940;2023-04-09T03:24:24;98647.84;;;1.99;100.00
65754;BME280;52488;47.502;18.940;2023-04-09T03:25:27;98642.41;;;1.99;100.00
65754;BME280;52488;47.502;18.940;2023-04-09T03:26:31;98643.38;;;2.01;100.00
65754;BME280;52488;47.502;18.940;2023-04-09T03:27:38;98646.81;;;2.02;100.00
65754;BME280;52488;47.502;18.940;2023-04-09T03:28:41;98653.72;;;2.03;100.00
65754;BME280;52488;47.502;18.940;2023-04-09T03:29:44;98647.78;;;2.04;100.00
65754;BME280;52488;47.502;18.940;2023-04-09T03:30:47;98645.78;;;2.05;100.00
65754;BME280;52488;47.502;18.940;2023-04-09T03:31:50;98645.78;;;2.05;100.00
65754;BME280;52488;47.502;18.940;2023-04-09T03:32:53;98648.94;;;2.09;100.00
65754;BME280;52488;47.502;18.940;2023-04-09T03:33:56;98646.25;;;2.09;100.00
65754;BME280;52488;47.502;18.940;2023-04-09T03:34:59;98645.44;;;2.14;100.00
65754;BME280;52488;47.502;18.940;2023-04-09T03:36:02;98647.16;;;2.17;100.00
65754;BME280;52488;47.502;18.940;2023-04-09T03:37:05;98652.31;;;2.15;100.00
65754;BME280;52488;47.502;18.940;2023-04-09T03:38:08;98645.44;;;2.14;100.00
65754;BME280;52488;47.502;18.940;2023-04-09T03:39:11;98648.88;;;2.15;100.00
65754;BME280;52488;47.502;18.940;2023-04-09T03:40:14;98648.16;;;2.14;100.00
65754;BME280;52488;47.502;18.940;2023-04-09T03:41:17;98644.44;;;2.17;100.00
65754;BME280;52488;47.502;18.940;2023-04-09T03:42:21;98637.75;;;2.18;100.00
65754;BME280;52488;47.502;18.940;2023-04-09T03:43:23;98651.31;;;2.18;100.00
65754;BME280;52488;47.502;18.940;2023-04-09T03:44:26;98647.88;;;2.18;100.00
65754;BME280;52488;47.502;18.940;2023-04-09T03:45:29;98642.47;;;2.18;100.00
65754;BME280;52488;47.502;18.940;2023-04-09T03:46:33;98639.00;;;2.17;100.00
65754;BME280;52488;47.502;18.940;2023-04-09T03:47:36;98648.81;;;2.20;100.00
65754;BME280;52488;47.502;18.940;2023-04-09T03:48:40;98646.84;;;2.21;100.00
65754;BME280;52488;47.502;18.940;2023-04-09T03:49:43;98650.06;;;2.19;100.00
65754;BME280;52488;47.502;18.940;2023-04-09T03:50:46;98650.81;;;2.20;100.00
65754;BME280;52488;47.502;18.940;2023-04-09T03:51:49;98657.69;;;2.21;100.00
65754;BME280;52488;47.502;18.940;2023-04-09T03:52:52;98653.44;;;2.25;100.00
65754;BME280;52488;47.502;18.940;2023-04-09T03:53:55;98648.03;;;2.25;100.00
65754;BME280;52488;47.502;18.940;2023-04-09T03:54:58;98651.47;;;2.26;100.00
65754;BME280;52488;47.502;18.940;2023-04-09T03:56:01;98650.22;;;2.27;100.00
65754;BME280;52488;47.502;18.940;2023-04-09T03:57:04;98656.59;;;2.29;100.00
65754;BME280;52488;47.502;18.940;2023-04-09T03:58:07;98644.28;;;2.28;100.00
65754;BME280;52488;47.502;18.940;2023-04-09T03:59:10;98650.22;;;2.27;100.00
65754;BME280;52488;47.502;18.940;2023-04-09T04:00:13;98651.91;;;2.30;100.00
65754;BME280;52488;47.502;18.940;2023-04-09T04:01:16;98652.13;;;2.32;100.00
65754;BME280;52488;47.502;18.940;2023-04-09T04:02:19;98655.56;;;2.32;100.00
65754;BME280;52488;47.502;18.940;2023-04-09T04:03:22;98663.22;;;2.34;100.00
65754;BME280;52488;47.502;18.940;2023-04-09T04:04:26;98653.69;;;2.46;100.00
65754;BME280;52488;47.502;18.940;2023-04-09T04:05:29;98659.63;;;2.45;100.00
65754;BME280;52488;47.502;18.940;2023-04-09T04:06:32;98663.78;;;2.46;100.00
65754;BME280;52488;47.502;18.940;2023-04-09T04:07:37;98663.56;;;2.44;100.00
65754;BME280;52488;47.502;18.940;2023-04-09T04:08:40;98654.47;;;2.41;100.00
65754;BME280;52488;47.502;18.940;2023-04-09T04:09:43;98663.88;;;2.40;100.00
65754;BME280;52488;47.502;18.940;2023-04-09T04:10:46;98665.84;;;2.40;100.00
65754;BME280;52488;47.502;18.940;2023-04-09T04:11:49;98662.09;;;2.43;100.00
65754;BME280;52488;47.502;18.940;2023-04-09T04:12:52;98661.56;;;2.44;100.00
65754;BME280;52488;47.502;18.940;2023-04-09T04:13:55;98667.75;;;2.45;100.00
65754;BME280;52488;47.502;18.940;2023-04-09T04:15:00;98663.06;;;2.45;100.00
65754;BME280;52488;47.502;18.940;2023-04-09T04:16:08;98661.50;;;2.50;100.00
65754;BME280;52488;47.502;18.940;2023-04-09T04:17:11;98664.44;;;2.52;100.00
65754;BME280;52488;47.502;18.940;2023-04-09T04:18:14;98663.19;;;2.53;100.00
65754;BME280;52488;47.502;18.940;2023-04-09T04:19:17;98660.69;;;2.55;100.00
65754;BME280;52488;47.502;18.940;2023-04-09T04:20:20;98667.59;;;2.56;100.00
65754;BME280;52488;47.502;18.940;2023-04-09T04:21:23;98659.22;;;2.54;100.00
65754;BME280;52488;47.502;18.940;2023-04-09T04:22:26;98664.66;;;2.54;100.00
65754;BME280;52488;47.502;18.940;2023-04-09T04:23:29;98665.63;;;2.56;100.00
65754;BME280;52488;47.502;18.940;2023-04-09T04:24:32;98659.41;;;2.61;100.00
65754;BME280;52488;47.502;18.940;2023-04-09T04:25:35;98658.87;;;2.63;100.00
65754;BME280;52488;47.502;18.940;2023-04-09T04:26:38;98663.25;;;2.66;100.00
65754;BME280;52488;47.502;18.940;2023-04-09T04:27:41;98668.41;;;2.70;100.00
65754;BME280;52488;47.502;18.940;2023-04-09T04:28:45;98670.16;;;2.67;100.00
65754;BME280;52488;47.502;18.940;2023-04-09T04:29:48;98664.50;;;2.65;100.00
65754;BME280;52488;47.502;18.940;2023-04-09T04:30:50;98666.50;;;2.64;100.00
65754;BME280;52488;47.502;18.940;2023-04-09T04:31:54;98667.94;;;2.65;100.00
65754;BME280;52488;47.502;18.940;2023-04-09T04:32:57;98665.25;;;2.65;100.00
65754;BME280;52488;47.502;18.940;2023-04-09T04:33:59;98669.66;;;2.69;100.00
65754;BME280;52488;47.502;18.940;2023-04-09T04:35:03;98668.41;;;2.70;100.00
65754;BME280;52488;47.502;18.940;2023-04-09T04:36:06;98669.13;;;2.70;100.00
65754;BME280;52488;47.502;18.940;2023-04-09T04:37:12;98675.19;;;2.76;100.00
65754;BME280;52488;47.502;18.940;2023-04-09T04:38:15;98670.66;;;2.84;100.00
65754;BME280;52488;47.502;18.940;2023-04-09T04:39:19;98673.66;;;2.81;100.00
65754;BME280;52488;47.502;18.940;2023-04-09T04:40:22;98679.81;;;2.81;100.00
65754;BME280;52488;47.502;18.940;2023-04-09T04:41:25;98680.56;;;2.82;100.00
65754;BME280;52488;47.502;18.940;2023-04-09T04:42:28;98677.84;;;2.82;100.00
65754;BME280;52488;47.502;18.940;2023-04-09T04:43:31;98681.28;;;2.82;100.00
65754;BME280;52488;47.502;18.940;2023-04-09T04:44:34;98677.56;;;2.85;100.00
65754;BME280;52488;47.502;18.940;2023-04-09T04:45:37;98681.50;;;2.84;100.00
65754;BME280;52488;47.502;18.940;2023-04-09T04:46:41;98672.13;;;2.85;100.00
65754;BME280;52488;47.502;18.940;2023-04-09T04:47:43;98678.00;;;2.89;100.00
65754;BME280;52488;47.502;18.940;2023-04-09T04:48:47;98680.72;;;2.89;100.00
65754;BME280;52488;47.502;18.940;2023-04-09T04:49:50;98683.09;;;2.93;100.00
65754;BME280;52488;47.502;18.940;2023-04-09T04:51:00;98668.81;;;2.92;100.00
65754;BME280;52488;47.502;18.940;2023-04-09T04:52:04;98676.69;;;3.09;100.00
65754;BME280;52488;47.502;18.940;2023-04-09T04:53:07;98679.97;;;3.21;100.00
65754;BME280;52488;47.502;18.940;2023-04-09T04:54:10;98679.56;;;3.17;100.00
65754;BME280;52488;47.502;18.940;2023-04-09T04:55:13;98677.22;;;3.08;100.00
65754;BME280;52488;47.502;18.940;2023-04-09T04:56:16;98678.25;;;3.05;100.00
65754;BME280;52488;47.502;18.940;2023-04-09T04:57:19;98683.66;;;3.05;100.00
65754;BME280;52488;47.502;18.940;2023-04-09T04:58:22;98681.69;;;3.05;100.00
65754;BME280;52488;47.502;18.940;2023-04-09T04:59:25;98678.97;;;3.05;100.00
65754;BME280;52488;47.502;18.940;2023-04-09T05:00:28;98676.84;;;3.17;100.00
65754;BME280;52488;47.502;18.940;2023-04-09T05:01:31;98683.00;;;3.17;100.00
65754;BME280;52488;47.502;18.940;2023-04-09T05:02:34;98686.88;;;3.22;100.00
65754;BME280;52488;47.502;18.940;2023-04-09T05:03:37;98680.78;;;3.16;100.00
65754;BME280;52488;47.502;18.940;2023-04-09T05:04:40;98677.13;;;3.13;100.00
65754;BME280;52488;47.502;18.940;2023-04-09T05:05:43;98681.31;;;3.14;100.00
65754;BME280;52488;47.502;18.940;2023-04-09T05:06:47;98677.97;;;3.22;100.00
65754;BME280;52488;47.502;18.940;2023-04-09T05:07:50;98682.59;;;3.27;100.00
65754;BME280;52488;47.502;18.940;2023-04-09T05:08:54;98686.47;;;3.31;100.00
65754;BME280;52488;47.502;18.940;2023-04-09T05:10:00;98679.16;;;3.26;100.00
65754;BME280;52488;47.502;18.940;2023-04-09T05:11:03;98680.59;;;3.27;100.00
65754;BME280;52488;47.502;18.940;2023-04-09T05:12:06;98691.47;;;3.27;100.00
65754;BME280;52488;47.502;18.940;2023-04-09T05:13:09;98690.31;;;3.23;100.00
65754;BME280;52488;47.502;18.940;2023-04-09T05:14:12;98690.09;;;3.21;100.00
65754;BME280;52488;47.502;18.940;2023-04-09T05:15:15;98692.88;;;3.34;100.00
65754;BME280;52488;47.502;18.940;2023-04-09T05:16:19;98685.84;;;3.38;100.00
65754;BME280;52488;47.502;18.940;2023-04-09T05:17:24;98689.09;;;3.37;100.00
65754;BME280;52488;47.502;18.940;2023-04-09T05:18:27;98685.94;;;3.33;100.00
65754;BME280;52488;47.502;18.940;2023-04-09T05:19:30;98686.03;;;3.27;100.00
65754;BME280;52488;47.502;18.940;2023-04-09T05:20:33;98690.56;;;3.38;100.00
65754;BME280;52488;47.502;18.940;2023-04-09T05:21:37;98685.44;;;3.34;100.00
65754;BME280;52488;47.502;18.940;2023-04-09T05:22:40;98689.41;;;3.33;100.00
65754;BME280;52488;47.502;18.940;2023-04-09T05:23:42;98679.59;;;3.30;100.00
65754;BME280;52488;47.502;18.940;2023-04-09T05:24:45;98685.22;;;3.32;100.00
65754;BME280;52488;47.502;18.940;2023-04-09T05:25:48;98691.16;;;3.31;100.00
65754;BME280;52488;47.502;18.940;2023-04-09T05:26:52;98691.38;;;3.33;100.00
65754;BME280;52488;47.502;18.940;2023-04-09T05:27:55;98690.16;;;3.34;100.00
65754;BME280;52488;47.502;18.940;2023-04-09T05:28:58;98689.81;;;3.37;100.00
65754;BME280;52488;47.502;18.940;2023-04-09T05:30:02;98690.25;;;3.41;100.00
65754;BME280;52488;47.502;18.940;2023-04-09T05:31:06;98693.72;;;3.42;100.00
65754;BME280;52488;47.502;18.940;2023-04-09T05:32:15;98693.62;;;3.48;100.00
65754;BME280;52488;47.502;18.940;2023-04-09T05:33:18;98693.41;;;3.46;100.00
65754;BME280;52488;47.502;18.940;2023-04-09T05:34:21;98695.31;;;3.51;100.00
65754;BME280;52488;47.502;18.940;2023-04-09T05:35:23;98697.28;;;3.50;100.00
65754;BME280;52488;47.502;18.940;2023-04-09T05:36:27;98700.31;;;3.47;100.00
65754;BME280;52488;47.502;18.940;2023-04-09T05:37:30;98695.59;;;3.47;100.00
65754;BME280;52488;47.502;18.940;2023-04-09T05:38:33;98701.03;;;3.47;100.00
65754;BME280;52488;47.502;18.940;2023-04-09T05:39:36;98697.06;;;3.48;100.00
65754;BME280;52488;47.502;18.940;2023-04-09T05:40:39;98704.19;;;3.51;100.00
65754;BME280;52488;47.502;18.940;2023-04-09T05:41:42;98700.94;;;3.53;100.00
65754;BME280;52488;47.502;18.940;2023-04-09T05:42:46;98701.66;;;3.53;100.00
65754;BME280;52488;47.502;18.940;2023-04-09T05:43:49;98701.38;;;3.57;100.00
65754;BME280;52488;47.502;18.940;2023-04-09T05:44:53;98697.94;;;3.56;100.00
65754;BME280;52488;47.502;18.940;2023-04-09T05:45:56;98705.97;;;3.62;100.00